Time;durP1;ratioP1;P1;durP2;ratioP2;P2;SDS_P1;SDS_P2;PMS_P1;PMS_P2;Temp;Humidity;BMP_temperature;BMP_pressure;BME280_temperature;BME280_humidity;BME280_pressure;Samples;Min_cycle;Max_cycle;Signal;HPM_P1;HPM_P2
2022/01/24 00:01:04;;;;;;;9.00;5.87;;;;;;;;;;4992942;28;20981;-64
2022/01/24 00:03:30;;;;;;;7.93;6.23;;;;;;;;;;4990044;28;20441;-64
2022/01/24 00:05:55;;;;;;;12.30;7.80;;;;;;;;;;4989668;28;20451;-69
2022/01/24 00:08:22;;;;;;;10.37;7.33;;;;;;;;;;4990385;28;20891;-71
2022/01/24 00:10:50;;;;;;;19.67;8.23;;;;;;;;;;4992665;28;20492;-66
2022/01/24 00:14:06;;;;;;;7.90;7.10;;;;;;;;;;4990932;28;20443;-65
2022/01/24 00:26:56;;;;;;;5.97;4.60;;;;;;;;;;4987524;28;20488;-65
2022/01/24 00:29:23;;;;;;;5.73;5.10;;;;;;;;;;4991116;28;20495;-70
2022/01/24 00:31:50;;;;;;;5.70;5.20;;;;;;;;;;4990410;28;20473;-65
2022/01/24 00:34:17;;;;;;;5.50;5.20;;;;;;;;;;4992310;28;20417;-69
2022/01/24 00:36:46;;;;;;;5.50;5.13;;;;;;;;;;4992269;28;20433;-65
2022/01/24 00:39:12;;;;;;;5.80;5.07;;;;;;;;;;4988811;28;20449;-70
2022/01/24 00:47:03;;;;;;;5.20;4.83;;;;;;;;;;4992680;28;20464;-66
2022/01/24 00:55:00;;;;;;;6.80;6.20;;;;;;;;;;4992558;28;20415;-66
2022/01/24 00:57:26;;;;;;;5.90;5.40;;;;;;;;;;4992430;28;20520;-70
2022/01/24 00:59:52;;;;;;;5.30;4.97;;;;;;;;;;4989693;28;20532;-67
2022/01/24 01:02:19;;;;;;;7.17;5.23;;;;;;;;;;4990422;28;20470;-68
2022/01/24 01:07:18;;;;;;;6.70;6.10;;;;;;;;;;4990555;28;20519;-74
2022/01/24 01:18:18;;;;;;;5.87;5.37;;;;;;;;;;4971959;28;20429;-66
2022/01/24 01:23:32;;;;;;;6.00;5.50;;;;;;;;;;4991653;28;20782;-66
2022/01/24 01:26:01;;;;;;;8.37;6.50;;;;;;;;;;4991607;28;20839;-66
2022/01/24 01:28:29;;;;;;;6.00;5.50;;;;;;;;;;4990305;28;20528;-69
2022/01/24 01:30:59;;;;;;;5.97;5.50;;;;;;;;;;4989489;28;20543;-65
2022/01/24 01:55:10;;;;;;;6.13;5.53;;;;;;;;;;4988957;28;20498;-65
2022/01/24 01:57:37;;;;;;;6.97;6.13;;;;;;;;;;4989627;28;20486;-65
2022/01/24 02:00:04;;;;;;;9.60;5.33;;;;;;;;;;4989644;28;20476;-68
2022/01/24 02:02:30;;;;;;;5.33;4.93;;;;;;;;;;4990373;28;20417;-65
2022/01/24 02:04:56;;;;;;;9.03;6.10;;;;;;;;;;4989001;28;20433;-65
2022/01/24 02:07:22;;;;;;;5.60;5.10;;;;;;;;;;4987430;28;20591;-65
2022/01/24 02:09:48;;;;;;;7.10;6.40;;;;;;;;;;5004328;28;20483;-65
2022/01/24 02:12:17;;;;;;;6.00;5.43;;;;;;;;;;5010138;28;20412;-65
2022/01/24 02:14:50;;;;;;;6.00;5.60;;;;;;;;;;5009157;28;20448;-65
2022/01/24 02:17:24;;;;;;;5.60;5.20;;;;;;;;;;5008417;28;20412;-65
2022/01/24 02:20:07;;;;;;;7.90;5.30;;;;;;;;;;5008925;28;20448;-65
2022/01/24 02:22:49;;;;;;;5.80;5.23;;;;;;;;;;5009673;28;20427;-66
2022/01/24 02:25:27;;;;;;;6.20;4.80;;;;;;;;;;5010532;28;20953;-65
2022/01/24 02:27:57;;;;;;;5.87;5.47;;;;;;;;;;5007356;28;20448;-64
2022/01/24 02:30:40;;;;;;;8.67;5.40;;;;;;;;;;5009664;28;20506;-68
2022/01/24 02:33:08;;;;;;;5.07;4.70;;;;;;;;;;5008997;28;21153;-65
2022/01/24 02:35:34;;;;;;;6.90;5.80;;;;;;;;;;5007265;28;20447;-66
2022/01/24 02:38:03;;;;;;;4.83;4.43;;;;;;;;;;5009064;28;20440;-65
2022/01/24 02:40:29;;;;;;;5.20;4.80;;;;;;;;;;5009579;28;20424;-71
2022/01/24 02:48:26;;;;;;;6.27;5.40;;;;;;;;;;5009894;28;20447;-68
2022/01/24 02:53:27;;;;;;;7.50;6.70;;;;;;;;;;5009822;28;20455;-67
2022/01/24 02:55:53;;;;;;;6.80;4.73;;;;;;;;;;5007817;28;20799;-72
2022/01/24 02:58:19;;;;;;;6.50;5.97;;;;;;;;;;5008290;28;20558;-72
2022/01/24 03:00:47;;;;;;;6.10;5.70;;;;;;;;;;5006605;28;20436;-67
2022/01/24 03:03:13;;;;;;;7.03;6.33;;;;;;;;;;5010161;28;20793;-71
2022/01/24 03:05:39;;;;;;;6.20;5.67;;;;;;;;;;5007470;28;20447;-70
2022/01/24 03:08:06;;;;;;;6.10;5.60;;;;;;;;;;5006906;28;20424;-66
2022/01/24 03:10:39;;;;;;;7.20;6.50;;;;;;;;;;4989786;28;20849;-65
2022/01/24 03:15:41;;;;;;;10.40;6.00;;;;;;;;;;4988851;28;20451;-65
2022/01/24 03:18:07;;;;;;;6.23;5.73;;;;;;;;;;4988825;28;20425;-65
2022/01/24 03:20:34;;;;;;;6.47;5.90;;;;;;;;;;4989372;28;20520;-65
2022/01/24 03:23:00;;;;;;;6.53;6.00;;;;;;;;;;4990024;28;20503;-64
2022/01/24 03:25:27;;;;;;;6.50;5.40;;;;;;;;;;4986419;28;20456;-66
2022/01/24 03:27:53;;;;;;;6.10;5.47;;;;;;;;;;4989828;28;20508;-67
2022/01/24 03:30:19;;;;;;;6.23;5.53;;;;;;;;;;4989659;28;20579;-66
2022/01/24 03:32:45;;;;;;;7.97;6.10;;;;;;;;;;4989557;28;20421;-66
2022/01/24 03:35:11;;;;;;;8.30;6.20;;;;;;;;;;4987701;28;20917;-65
2022/01/24 03:37:37;;;;;;;8.27;6.30;;;;;;;;;;4988758;28;20417;-67
2022/01/24 03:40:03;;;;;;;8.33;6.33;;;;;;;;;;4989628;28;20425;-65
2022/01/24 03:42:29;;;;;;;5.90;5.50;;;;;;;;;;4989391;28;20424;-66
2022/01/24 03:44:59;;;;;;;6.40;5.70;;;;;;;;;;4989997;28;20434;-65
2022/01/24 03:50:23;;;;;;;6.73;5.77;;;;;;;;;;4989777;28;20492;-65
2022/01/24 03:52:49;;;;;;;8.60;6.40;;;;;;;;;;4988541;28;20797;-65
2022/01/24 03:55:15;;;;;;;8.10;5.80;;;;;;;;;;4988336;28;20484;-66
2022/01/24 03:57:41;;;;;;;8.63;6.50;;;;;;;;;;4993207;28;20453;-68
2022/01/24 04:00:08;;;;;;;7.57;6.07;;;;;;;;;;4993380;28;20902;-71
2022/01/24 04:02:34;;;;;;;6.23;5.63;;;;;;;;;;4992078;28;20429;-65
2022/01/24 04:05:00;;;;;;;6.87;6.27;;;;;;;;;;4992818;28;20980;-68
2022/01/24 04:07:27;;;;;;;7.37;6.10;;;;;;;;;;4984527;28;20952;-69
2022/01/24 04:09:53;;;;;;;7.73;6.07;;;;;;;;;;4991179;28;20477;-69
2022/01/24 04:12:24;;;;;;;10.70;7.17;;;;;;;;;;4992856;28;20433;-67
2022/01/24 04:22:20;;;;;;;7.10;6.40;;;;;;;;;;4992583;28;21004;-65
2022/01/24 04:24:47;;;;;;;6.23;5.80;;;;;;;;;;4992410;28;20516;-66
2022/01/24 04:27:14;;;;;;;9.20;7.90;;;;;;;;;;4986297;28;20539;-78
2022/01/24 04:29:41;;;;;;;9.13;6.60;;;;;;;;;;4987609;28;20542;-65
2022/01/24 04:32:07;;;;;;;7.37;6.77;;;;;;;;;;4991925;28;20417;-72
2022/01/24 04:34:36;;;;;;;7.93;7.00;;;;;;;;;;4992317;28;20433;-76
2022/01/24 04:37:02;;;;;;;8.60;6.23;;;;;;;;;;4985517;28;20451;-70
2022/01/24 04:39:28;;;;;;;5.63;5.27;;;;;;;;;;4992231;28;20557;-64
2022/01/24 04:41:57;;;;;;;5.10;4.60;;;;;;;;;;4992611;28;20511;-65
2022/01/24 04:54:51;;;;;;;4.60;4.30;;;;;;;;;;4990170;28;20452;-72
2022/01/24 04:57:21;;;;;;;5.23;4.93;;;;;;;;;;4982378;28;20444;-68
2022/01/24 04:59:50;;;;;;;4.83;4.63;;;;;;;;;;4974344;28;21007;-66
2022/01/24 05:02:16;;;;;;;5.03;4.63;;;;;;;;;;4991634;28;20413;-65
2022/01/24 05:04:42;;;;;;;9.03;7.40;;;;;;;;;;4991761;28;20436;-67
2022/01/24 05:07:08;;;;;;;13.73;8.67;;;;;;;;;;4985275;28;20454;-65
2022/01/24 05:09:43;;;;;;;15.23;8.63;;;;;;;;;;4984657;28;20495;-67
2022/01/24 05:21:21;;;;;;;12.57;8.30;;;;;;;;;;4991810;28;20574;-75
2022/01/24 05:26:08;;;;;;;4.33;4.03;;;;;;;;;;4978922;28;20428;-75
2022/01/24 05:28:35;;;;;;;4.20;3.93;;;;;;;;;;4984602;28;20485;-66
2022/01/24 05:31:01;;;;;;;15.33;2.87;;;;;;;;;;4989860;28;20914;-66
2022/01/24 05:33:28;;;;;;;9.90;5.47;;;;;;;;;;4991517;28;20516;-65
2022/01/24 05:35:54;;;;;;;7.07;5.83;;;;;;;;;;4991260;28;20421;-74
2022/01/24 05:38:22;;;;;;;14.80;7.10;;;;;;;;;;4987320;28;20453;-67
2022/01/24 05:40:48;;;;;;;5.00;4.60;;;;;;;;;;4987985;28;20441;-72
2022/01/24 05:43:14;;;;;;;6.50;5.70;;;;;;;;;;4991430;28;20540;-76
2022/01/24 05:45:41;;;;;;;9.90;6.10;;;;;;;;;;4991682;28;20432;-72
2022/01/24 05:48:07;;;;;;;7.67;5.43;;;;;;;;;;4986229;28;20890;-65
2022/01/24 05:50:33;;;;;;;4.83;4.60;;;;;;;;;;4986015;28;20854;-66
2022/01/24 05:52:59;;;;;;;4.67;4.33;;;;;;;;;;4991147;28;20425;-65
2022/01/24 05:55:26;;;;;;;10.20;6.10;;;;;;;;;;4990057;28;20902;-68
2022/01/24 05:57:53;;;;;;;6.50;5.93;;;;;;;;;;4988309;28;20444;-69
2022/01/24 06:00:19;;;;;;;12.40;8.00;;;;;;;;;;4978745;28;20587;-65
2022/01/24 06:02:45;;;;;;;10.27;7.40;;;;;;;;;;4990600;28;20424;-65
2022/01/24 06:05:11;;;;;;;13.37;9.30;;;;;;;;;;4987898;28;20437;-68
2022/01/24 06:07:37;;;;;;;12.30;9.40;;;;;;;;;;4991013;28;20503;-65
2022/01/24 06:10:05;;;;;;;9.67;7.60;;;;;;;;;;4981915;28;20489;-65
2022/01/24 06:12:31;;;;;;;10.77;6.90;;;;;;;;;;4988818;28;20445;-67
2022/01/24 06:14:57;;;;;;;8.13;6.70;;;;;;;;;;4991333;28;20417;-66
2022/01/24 06:17:23;;;;;;;7.60;7.00;;;;;;;;;;4989997;28;20429;-65
2022/01/24 06:19:49;;;;;;;7.83;5.90;;;;;;;;;;4983780;28;20444;-70
2022/01/24 06:22:15;;;;;;;18.20;7.17;;;;;;;;;;4986286;28;20938;-65
2022/01/24 06:24:41;;;;;;;14.80;8.07;;;;;;;;;;4989373;28;20888;-65
2022/01/24 06:27:07;;;;;;;18.17;8.43;;;;;;;;;;4990773;28;20527;-66
2022/01/24 06:29:33;;;;;;;12.47;10.87;;;;;;;;;;4985502;28;20845;-65
2022/01/24 06:31:59;;;;;;;16.73;11.50;;;;;;;;;;4989062;28;20436;-66
2022/01/24 06:34:25;;;;;;;16.97;9.83;;;;;;;;;;4988733;28;20437;-68
2022/01/24 06:36:51;;;;;;;17.70;11.50;;;;;;;;;;4989146;28;20465;-66
2022/01/24 06:39:17;;;;;;;16.47;9.53;;;;;;;;;;4988164;28;20796;-69
2022/01/24 06:41:51;;;;;;;15.63;10.97;;;;;;;;;;4987320;28;20790;-65
2022/01/24 06:44:17;;;;;;;13.60;10.40;;;;;;;;;;4985745;28;20471;-67
2022/01/24 06:46:44;;;;;;;17.37;10.93;;;;;;;;;;4983603;28;20496;-65
2022/01/24 06:49:14;;;;;;;9.53;8.17;;;;;;;;;;4986825;28;20935;-66
2022/01/24 06:51:40;;;;;;;9.37;7.80;;;;;;;;;;4987633;28;20531;-68
2022/01/24 06:54:06;;;;;;;10.17;7.20;;;;;;;;;;4988960;28;20461;-65
2022/01/24 06:56:32;;;;;;;10.77;7.30;;;;;;;;;;4987686;28;21024;-66
2022/01/24 06:58:58;;;;;;;7.70;6.90;;;;;;;;;;4964015;28;20782;-65
2022/01/24 07:01:24;;;;;;;9.87;6.67;;;;;;;;;;4972233;28;20540;-65
2022/01/24 07:03:50;;;;;;;7.00;6.07;;;;;;;;;;4985392;28;20512;-68
2022/01/24 07:06:16;;;;;;;7.23;6.10;;;;;;;;;;4983198;28;20448;-70
2022/01/24 07:08:42;;;;;;;6.03;5.63;;;;;;;;;;4985163;28;20497;-66
2022/01/24 07:11:08;;;;;;;10.17;7.93;;;;;;;;;;4982830;28;20528;-67
2022/01/24 07:13:34;;;;;;;13.53;9.33;;;;;;;;;;4987013;28;20445;-66
2022/01/24 07:16:05;;;;;;;18.60;12.50;;;;;;;;;;4982813;28;20453;-66
2022/01/24 07:20:58;;;;;;;18.30;12.60;;;;;;;;;;4982211;28;20456;-70
2022/01/24 07:23:24;;;;;;;11.03;9.30;;;;;;;;;;4979626;28;20441;-66
2022/01/24 07:25:51;;;;;;;9.63;7.23;;;;;;;;;;4984429;28;20456;-66
2022/01/24 07:28:17;;;;;;;14.30;5.80;;;;;;;;;;4986564;28;20968;-65
2022/01/24 07:30:44;;;;;;;7.23;4.70;;;;;;;;;;4988252;28;20512;-65
2022/01/24 07:33:10;;;;;;;9.50;6.43;;;;;;;;;;4989817;28;20445;-70
2022/01/24 07:35:36;;;;;;;4.70;4.27;;;;;;;;;;4989098;28;20440;-68
2022/01/24 07:38:05;;;;;;;5.30;4.90;;;;;;;;;;4992720;28;20424;-67
2022/01/24 07:40:31;;;;;;;7.00;6.30;;;;;;;;;;4983307;28;20444;-65
2022/01/24 07:43:09;;;;;;;5.23;4.83;;;;;;;;;;4992333;28;20520;-67
2022/01/24 07:45:36;;;;;;;4.07;3.87;;;;;;;;;;4984991;28;20448;-65
2022/01/24 07:48:03;;;;;;;5.40;5.00;;;;;;;;;;4989890;28;20434;-68
2022/01/24 07:50:29;;;;;;;6.03;5.53;;;;;;;;;;4987176;28;20480;-66
2022/01/24 07:52:56;;;;;;;4.27;4.00;;;;;;;;;;4992299;28;20873;-67
2022/01/24 07:55:22;;;;;;;4.60;4.30;;;;;;;;;;4987481;28;20484;-65
2022/01/24 07:57:49;;;;;;;6.00;4.07;;;;;;;;;;4989656;28;20532;-68
2022/01/24 08:00:15;;;;;;;4.23;4.03;;;;;;;;;;4990703;28;20432;-66
2022/01/24 08:02:41;;;;;;;5.07;4.70;;;;;;;;;;4989752;28;20429;-65
2022/01/24 08:05:08;;;;;;;5.57;5.10;;;;;;;;;;4988538;28;20425;-66
2022/01/24 08:07:35;;;;;;;7.90;5.27;;;;;;;;;;4992305;28;20429;-65
2022/01/24 08:10:01;;;;;;;4.90;4.50;;;;;;;;;;4987906;28;20953;-68
2022/01/24 08:12:27;;;;;;;3.53;3.37;;;;;;;;;;4989413;28;20425;-65
2022/01/24 08:14:53;;;;;;;5.33;4.83;;;;;;;;;;4988507;28;21016;-73
2022/01/24 08:17:19;;;;;;;6.43;4.10;;;;;;;;;;4988635;28;20443;-69
2022/01/24 08:19:45;;;;;;;6.83;4.70;;;;;;;;;;4986683;28;20433;-68
2022/01/24 08:22:13;;;;;;;6.40;5.87;;;;;;;;;;4990720;28;20941;-75
2022/01/24 08:24:39;;;;;;;6.93;5.73;;;;;;;;;;4989967;28;20421;-69
2022/01/24 08:27:05;;;;;;;5.60;5.30;;;;;;;;;;4992811;28;20825;-62
2022/01/24 08:29:31;;;;;;;6.03;5.50;;;;;;;;;;4987343;28;20845;-66
2022/01/24 08:31:57;;;;;;;7.43;6.90;;;;;;;;;;4990154;28;20451;-66
2022/01/24 08:34:23;;;;;;;12.10;9.30;;;;;;;;;;4988174;28;20902;-64
2022/01/24 08:36:49;;;;;;;8.77;7.93;;;;;;;;;;4988136;28;20451;-65
2022/01/24 08:39:15;;;;;;;7.90;6.80;;;;;;;;;;4989236;28;20417;-69
2022/01/24 08:44:31;;;;;;;5.80;5.40;;;;;;;;;;4988818;28;20444;-70
2022/01/24 08:46:56;;;;;;;8.20;6.90;;;;;;;;;;4991535;28;21491;-67
2022/01/24 08:49:22;;;;;;;7.67;6.60;;;;;;;;;;4985908;28;20491;-69
2022/01/24 08:51:48;;;;;;;10.50;7.50;;;;;;;;;;4990488;28;20444;-68
2022/01/24 08:54:14;;;;;;;6.10;5.60;;;;;;;;;;4957263;28;20433;-65
2022/01/24 08:56:40;;;;;;;7.20;6.50;;;;;;;;;;4990973;28;20437;-65
2022/01/24 08:59:06;;;;;;;7.43;6.70;;;;;;;;;;4984447;28;20440;-66
2022/01/24 09:01:33;;;;;;;29.57;18.07;;;;;;;;;;4988024;28;20940;-67
2022/01/24 09:03:59;;;;;;;30.83;15.77;;;;;;;;;;4983016;28;20448;-66
2022/01/24 09:06:25;;;;;;;10.10;8.23;;;;;;;;;;4990947;28;20437;-66
2022/01/24 09:08:55;;;;;;;7.47;5.17;;;;;;;;;;4986916;28;20480;-67
2022/01/24 09:11:23;;;;;;;7.67;5.90;;;;;;;;;;4989496;28;20554;-66
2022/01/24 09:13:49;;;;;;;18.40;9.07;;;;;;;;;;4987780;28;20437;-69
2022/01/24 09:16:15;;;;;;;5.00;4.60;;;;;;;;;;4991487;28;20426;-69
2022/01/24 09:18:41;;;;;;;5.67;5.17;;;;;;;;;;4988253;28;20456;-72
2022/01/24 09:21:07;;;;;;;5.33;4.93;;;;;;;;;;4988559;28;20880;-70
2022/01/24 09:23:33;;;;;;;5.20;4.77;;;;;;;;;;4987601;28;20429;-67
2022/01/24 09:25:59;;;;;;;42.63;16.70;;;;;;;;;;4983801;28;20434;-66
2022/01/24 09:28:25;;;;;;;19.83;10.33;;;;;;;;;;4983938;28;20441;-65
2022/01/24 09:30:52;;;;;;;18.93;9.20;;;;;;;;;;4989745;28;21035;-67
2022/01/24 09:33:21;;;;;;;85.43;26.00;;;;;;;;;;4985460;28;20429;-66
2022/01/24 09:35:47;;;;;;;36.87;15.40;;;;;;;;;;4989407;28;20444;-72
2022/01/24 09:38:13;;;;;;;29.73;11.70;;;;;;;;;;4987433;28;20437;-69
2022/01/24 09:40:40;;;;;;;20.93;10.00;;;;;;;;;;4990200;28;20481;-68
2022/01/24 09:43:06;;;;;;;10.17;6.37;;;;;;;;;;4988000;28;20444;-64
2022/01/24 09:45:32;;;;;;;5.60;5.20;;;;;;;;;;4988145;28;20449;-68
2022/01/24 09:47:58;;;;;;;5.60;5.10;;;;;;;;;;4984529;28;20995;-68
2022/01/24 09:50:24;;;;;;;10.23;6.00;;;;;;;;;;4984884;28;21008;-67
2022/01/24 09:52:51;;;;;;;7.77;5.90;;;;;;;;;;4984274;28;20818;-65
2022/01/24 09:55:18;;;;;;;6.97;6.20;;;;;;;;;;4988561;28;20433;-67
2022/01/24 09:57:47;;;;;;;8.67;7.30;;;;;;;;;;4985303;28;20441;-67
2022/01/24 10:00:14;;;;;;;5.43;5.07;;;;;;;;;;4984740;28;20457;-66
2022/01/24 10:02:40;;;;;;;4.80;4.40;;;;;;;;;;4985661;28;20503;-66
2022/01/24 10:05:33;;;;;;;5.33;4.90;;;;;;;;;;4988239;28;20447;-66
2022/01/24 10:08:00;;;;;;;5.43;5.03;;;;;;;;;;4984094;28;20449;-71
2022/01/24 10:10:32;;;;;;;5.70;5.17;;;;;;;;;;4988704;28;20472;-66
2022/01/24 10:19:04;;;;;;;4.80;4.40;;;;;;;;;;4989363;28;20420;-66
2022/01/24 10:21:36;;;;;;;6.23;5.43;;;;;;;;;;4988437;28;20425;-66
2022/01/24 10:24:02;;;;;;;5.67;5.27;;;;;;;;;;4988568;28;20427;-68
2022/01/24 10:26:29;;;;;;;6.93;6.37;;;;;;;;;;4987500;28;20432;-68
2022/01/24 10:28:55;;;;;;;6.93;5.90;;;;;;;;;;4987248;28;20524;-67
2022/01/24 10:31:24;;;;;;;5.93;5.63;;;;;;;;;;4987931;28;20484;-66
2022/01/24 10:34:45;;;;;;;6.80;5.93;;;;;;;;;;4988932;28;20599;-69
2022/01/24 10:36:47;;;;;;;8.10;7.03;;;;;;;;;;4981053;28;20528;-67
2022/01/24 10:39:20;;;;;;;6.30;5.90;;;;;;;;;;4987810;28;20425;-70
2022/01/24 10:42:10;;;;;;;8.97;8.23;;;;;;;;;;4988471;28;20780;-71
2022/01/24 10:44:37;;;;;;;8.33;7.57;;;;;;;;;;4988135;28;20428;-71
2022/01/24 10:47:22;;;;;;;8.27;7.47;;;;;;;;;;4981825;28;20440;-67
2022/01/24 10:49:48;;;;;;;20.47;9.67;;;;;;;;;;4988750;28;20523;-66
2022/01/24 10:52:19;;;;;;;8.93;6.07;;;;;;;;;;4982915;28;20432;-66
2022/01/24 10:54:45;;;;;;;7.10;5.90;;;;;;;;;;4983474;28;20521;-66
2022/01/24 10:57:41;;;;;;;6.77;5.93;;;;;;;;;;4983554;28;20441;-70
2022/01/24 11:00:13;;;;;;;12.53;10.60;;;;;;;;;;4979756;28;20560;-67
2022/01/24 11:02:41;;;;;;;26.40;18.20;;;;;;;;;;4977822;28;20453;-66
2022/01/24 11:05:14;;;;;;;10.60;8.57;;;;;;;;;;4989001;28;20424;-66
2022/01/24 11:08:00;;;;;;;7.80;7.00;;;;;;;;;;4985058;28;20475;-66
2022/01/24 11:10:30;;;;;;;5.47;5.13;;;;;;;;;;4985580;28;20492;-68
2022/01/24 11:12:57;;;;;;;12.60;11.23;;;;;;;;;;4983593;28;20469;-66
2022/01/24 11:15:24;;;;;;;24.20;16.10;;;;;;;;;;4979045;28;20454;-66
2022/01/24 11:17:50;;;;;;;6.50;6.00;;;;;;;;;;4977497;28;20448;-68
2022/01/24 11:20:18;;;;;;;6.17;5.67;;;;;;;;;;4987673;28;20476;-70
2022/01/24 11:22:46;;;;;;;5.17;4.77;;;;;;;;;;4986412;28;20465;-67
2022/01/24 11:25:13;;;;;;;5.20;4.80;;;;;;;;;;4983378;28;20460;-67
2022/01/24 11:27:41;;;;;;;5.43;5.03;;;;;;;;;;4984211;28;20444;-68
2022/01/24 11:30:24;;;;;;;6.87;6.13;;;;;;;;;;4987648;28;20535;-66
2022/01/24 11:32:53;;;;;;;4.90;4.60;;;;;;;;;;4987212;28;20514;-66
2022/01/24 11:35:29;;;;;;;7.23;5.07;;;;;;;;;;4983727;28;20802;-66
2022/01/24 11:37:56;;;;;;;11.17;8.70;;;;;;;;;;4970428;28;20440;-67
2022/01/24 11:40:26;;;;;;;7.03;6.43;;;;;;;;;;4989842;28;20528;-66
2022/01/24 11:42:52;;;;;;;5.70;5.20;;;;;;;;;;4991179;28;21016;-66
2022/01/24 11:45:43;;;;;;;10.27;8.13;;;;;;;;;;4988014;28;20502;-70
2022/01/24 11:48:17;;;;;;;6.63;6.07;;;;;;;;;;4990455;28;20530;-61
2022/01/24 11:50:43;;;;;;;5.80;5.30;;;;;;;;;;4983462;28;20520;-62
2022/01/24 11:53:22;;;;;;;7.40;6.23;;;;;;;;;;4986968;28;20442;-63
2022/01/24 11:55:49;;;;;;;6.07;5.60;;;;;;;;;;4989122;28;20511;-62
2022/01/24 11:58:22;;;;;;;7.33;6.73;;;;;;;;;;4989575;28;20465;-61
2022/01/24 12:00:48;;;;;;;7.50;6.87;;;;;;;;;;4989041;28;20452;-61
2022/01/24 12:03:16;;;;;;;6.63;6.03;;;;;;;;;;4991144;28;20846;-61
2022/01/24 12:05:44;;;;;;;9.32;8.38;;;;;;;;;;4990454;28;21061;-66
2022/01/24 12:08:11;;;;;;;9.67;7.97;;;;;;;;;;4989496;28;20276;-67
2022/01/24 12:10:41;;;;;;;7.43;6.73;;;;;;;;;;4990227;28;20492;-67
2022/01/24 12:13:13;;;;;;;9.43;7.60;;;;;;;;;;4992628;28;20582;-67
2022/01/24 12:15:39;;;;;;;6.80;6.20;;;;;;;;;;4989463;28;20429;-67
2022/01/24 12:18:26;;;;;;;11.30;6.13;;;;;;;;;;4990586;28;20927;-66
2022/01/24 12:21:01;;;;;;;7.33;6.70;;;;;;;;;;4982236;28;20457;-66
2022/01/24 12:23:31;;;;;;;6.73;6.23;;;;;;;;;;4991186;28;20523;-73
2022/01/24 12:26:03;;;;;;;7.47;6.80;;;;;;;;;;4986682;28;20941;-67
2022/01/24 12:28:33;;;;;;;7.03;5.80;;;;;;;;;;4992176;28;20552;-66
2022/01/24 12:30:59;;;;;;;9.07;8.20;;;;;;;;;;4988320;28;20489;-70
2022/01/24 12:33:36;;;;;;;7.47;6.87;;;;;;;;;;5005810;28;20533;-70
2022/01/24 12:36:03;;;;;;;7.50;6.10;;;;;;;;;;4990004;28;20862;-67
2022/01/24 12:38:46;;;;;;;8.70;7.10;;;;;;;;;;4984720;28;20478;-66
2022/01/24 12:41:27;;;;;;;17.40;9.50;;;;;;;;;;5001374;28;20437;-70
2022/01/24 12:44:10;;;;;;;10.77;8.83;;;;;;;;;;4991573;28;20433;-71
2022/01/24 12:46:36;;;;;;;19.93;13.70;;;;;;;;;;4991759;28;20409;-67
2022/01/24 12:49:04;;;;;;;44.37;23.17;;;;;;;;;;4988643;28;20929;-66
2022/01/24 12:51:31;;;;;;;10.33;8.47;;;;;;;;;;4989663;28;20600;-67
2022/01/24 12:53:58;;;;;;;35.27;19.90;;;;;;;;;;4988450;28;20441;-69
2022/01/24 12:56:24;;;;;;;30.73;17.17;;;;;;;;;;4989670;28;20456;-66
2022/01/24 12:58:51;;;;;;;23.57;12.73;;;;;;;;;;4991110;28;20488;-66
2022/01/24 13:01:23;;;;;;;8.83;7.93;;;;;;;;;;4985818;28;20437;-67
2022/01/24 13:03:49;;;;;;;9.40;5.50;;;;;;;;;;4986973;28;20868;-67
2022/01/24 13:06:16;;;;;;;7.93;7.00;;;;;;;;;;4990193;28;20859;-67
2022/01/24 13:08:58;;;;;;;11.13;8.10;;;;;;;;;;5005404;28;21065;-67
2022/01/24 13:11:24;;;;;;;6.93;5.73;;;;;;;;;;4987925;28;20485;-66
2022/01/24 13:14:00;;;;;;;6.93;6.33;;;;;;;;;;5000371;28;20429;-66
2022/01/24 13:22:26;;;;;;;6.67;6.07;;;;;;;;;;4991100;28;20475;-66
2022/01/24 13:25:27;;;;;;;9.40;6.37;;;;;;;;;;4988915;28;20469;-68
2022/01/24 13:27:59;;;;;;;5.50;5.00;;;;;;;;;;4982152;28;20465;-66
2022/01/24 13:30:27;;;;;;;13.57;12.20;;;;;;;;;;5002374;28;21012;-67
2022/01/24 13:33:00;;;;;;;14.10;7.07;;;;;;;;;;4989505;28;20853;-67
2022/01/24 13:35:33;;;;;;;11.47;6.87;;;;;;;;;;5002783;28;20472;-66
2022/01/24 13:38:00;;;;;;;8.20;7.50;;;;;;;;;;4987832;28;20910;-67
2022/01/24 13:40:51;;;;;;;8.50;6.27;;;;;;;;;;4988775;28;20436;-67
2022/01/24 13:43:28;;;;;;;6.53;5.93;;;;;;;;;;4986165;28;20437;-70
2022/01/24 13:45:54;;;;;;;8.00;7.33;;;;;;;;;;4989157;28;20437;-71
2022/01/24 13:48:21;;;;;;;7.63;6.03;;;;;;;;;;5002735;28;20432;-67
2022/01/24 13:50:57;;;;;;;5.40;5.00;;;;;;;;;;4989678;28;20485;-68
2022/01/24 13:53:30;;;;;;;10.73;7.87;;;;;;;;;;4982482;28;21379;-70
2022/01/24 13:55:58;;;;;;;6.53;5.90;;;;;;;;;;4990603;28;20468;-67
2022/01/24 13:58:24;;;;;;;9.73;7.50;;;;;;;;;;4985761;28;20959;-67
2022/01/24 14:01:00;;;;;;;7.43;6.83;;;;;;;;;;5002208;28;20468;-67
2022/01/24 14:03:26;;;;;;;7.73;6.17;;;;;;;;;;4983330;28;20807;-68
2022/01/24 14:06:12;;;;;;;8.43;6.43;;;;;;;;;;5002029;28;20438;-72
2022/01/24 14:08:38;;;;;;;6.27;5.67;;;;;;;;;;4991282;28;20967;-68
2022/01/24 14:11:14;;;;;;;10.07;7.30;;;;;;;;;;5005529;28;20563;-71
2022/01/24 14:13:46;;;;;;;4.97;4.57;;;;;;;;;;5005407;28;20912;-67
2022/01/24 14:16:33;;;;;;;8.10;5.93;;;;;;;;;;5006639;28;20555;-69
2022/01/24 14:19:00;;;;;;;7.70;5.97;;;;;;;;;;5005293;28;20903;-69
2022/01/24 14:21:26;;;;;;;11.83;6.57;;;;;;;;;;4971929;28;20471;-68
2022/01/24 14:23:54;;;;;;;7.10;6.43;;;;;;;;;;5001526;28;20518;-69
2022/01/24 14:26:24;;;;;;;8.37;7.60;;;;;;;;;;5009323;28;20562;-68
2022/01/24 14:29:12;;;;;;;7.97;7.27;;;;;;;;;;5002307;28;20522;-66
2022/01/24 14:31:38;;;;;;;8.63;6.33;;;;;;;;;;5006892;28;20535;-69
2022/01/24 14:34:06;;;;;;;14.40;6.97;;;;;;;;;;5006869;28;20448;-67
2022/01/24 14:36:32;;;;;;;8.40;6.93;;;;;;;;;;5005423;28;20983;-67
2022/01/24 14:39:00;;;;;;;12.63;5.90;;;;;;;;;;5005706;28;20479;-67
2022/01/24 14:41:39;;;;;;;7.30;6.60;;;;;;;;;;5008305;28;20451;-66
2022/01/24 14:46:54;;;;;;;8.53;6.90;;;;;;;;;;5010132;28;20812;-70
2022/01/24 14:49:23;;;;;;;9.83;5.83;;;;;;;;;;5004293;28;20436;-73
2022/01/24 14:51:49;;;;;;;6.63;6.03;;;;;;;;;;5008286;28;21591;-66
2022/01/24 14:54:17;;;;;;;7.63;6.83;;;;;;;;;;5007216;28;20432;-73
2022/01/24 14:56:44;;;;;;;17.63;7.07;;;;;;;;;;5007148;28;20424;-69
2022/01/24 14:59:10;;;;;;;7.40;6.67;;;;;;;;;;5006358;28;20522;-69
2022/01/24 15:01:36;;;;;;;7.53;6.40;;;;;;;;;;5008769;28;20430;-70
2022/01/24 15:04:03;;;;;;;8.10;7.20;;;;;;;;;;5006768;28;20435;-68
2022/01/24 15:06:30;;;;;;;6.97;6.27;;;;;;;;;;5008206;28;20440;-67
2022/01/24 15:08:57;;;;;;;8.03;7.13;;;;;;;;;;5001854;28;20464;-67
2022/01/24 15:11:27;;;;;;;6.63;5.60;;;;;;;;;;4989130;28;20492;-66
2022/01/24 15:13:57;;;;;;;14.07;7.33;;;;;;;;;;4987437;28;20857;-70
2022/01/24 15:27:09;;;;;;;6.50;5.87;;;;;;;;;;4987287;28;20445;-67
2022/01/24 15:29:36;;;;;;;8.27;6.70;;;;;;;;;;5004019;28;20876;-68
2022/01/24 15:32:03;;;;;;;7.07;6.40;;;;;;;;;;4987877;28;20432;-68
2022/01/24 15:34:30;;;;;;;8.60;6.80;;;;;;;;;;4989410;28;20444;-69
2022/01/24 15:36:56;;;;;;;6.57;6.00;;;;;;;;;;4986941;28;20441;-71
2022/01/24 15:39:23;;;;;;;7.33;6.70;;;;;;;;;;4989340;28;20500;-73
2022/01/24 15:41:56;;;;;;;12.10;7.30;;;;;;;;;;4998630;28;20437;-67
2022/01/24 15:46:55;;;;;;;19.93;13.30;;;;;;;;;;4985239;28;20883;-64
2022/01/24 15:49:21;;;;;;;6.67;6.10;;;;;;;;;;4983846;28;20548;-65
2022/01/24 15:51:47;;;;;;;6.87;6.20;;;;;;;;;;4986699;28;20484;-65
2022/01/24 15:54:17;;;;;;;7.30;6.60;;;;;;;;;;4990224;28;20513;-65
2022/01/24 15:59:09;;;;;;;8.20;6.57;;;;;;;;;;4988158;28;20438;-65
2022/01/24 16:01:36;;;;;;;11.73;6.80;;;;;;;;;;4988054;28;20506;-66
2022/01/24 16:04:02;;;;;;;8.30;6.10;;;;;;;;;;4990237;28;20425;-70
2022/01/24 16:06:29;;;;;;;10.23;6.57;;;;;;;;;;4989840;28;20429;-67
2022/01/24 16:08:55;;;;;;;8.63;6.80;;;;;;;;;;5009740;28;20476;-68
2022/01/24 16:11:24;;;;;;;8.10;7.27;;;;;;;;;;5007895;28;20486;-66
2022/01/24 16:13:50;;;;;;;6.17;5.53;;;;;;;;;;5010893;28;20878;-68
2022/01/24 16:16:17;;;;;;;6.57;5.97;;;;;;;;;;5008531;28;20479;-65
2022/01/24 16:18:43;;;;;;;7.00;5.70;;;;;;;;;;5009814;28;20509;-64
2022/01/24 16:21:39;;;;;;;6.40;5.90;;;;;;;;;;5005369;28;20877;-73
2022/01/24 16:26:44;;;;;;;7.80;6.43;;;;;;;;;;5008691;28;20439;-64
2022/01/24 16:29:10;;;;;;;7.80;7.10;;;;;;;;;;5007250;28;20436;-65
2022/01/24 16:31:36;;;;;;;8.23;7.47;;;;;;;;;;5004642;28;21078;-64
2022/01/24 16:34:05;;;;;;;12.57;7.17;;;;;;;;;;5008078;28;20450;-65
2022/01/24 16:36:31;;;;;;;8.70;7.90;;;;;;;;;;5006411;28;20441;-72
2022/01/24 16:38:57;;;;;;;8.50;7.70;;;;;;;;;;5006143;28;20928;-68
2022/01/24 16:41:34;;;;;;;15.33;10.20;;;;;;;;;;5005991;28;20454;-71
2022/01/24 16:44:15;;;;;;;13.47;10.20;;;;;;;;;;5010032;28;20428;-67
2022/01/24 16:49:25;;;;;;;20.97;12.47;;;;;;;;;;5010569;28;20451;-67
2022/01/24 16:51:52;;;;;;;14.13;11.20;;;;;;;;;;5007335;28;20529;-65
2022/01/24 16:54:18;;;;;;;13.90;9.97;;;;;;;;;;5009967;28;20466;-70
2022/01/24 16:56:47;;;;;;;12.13;9.13;;;;;;;;;;5007094;28;20494;-65
2022/01/24 16:59:14;;;;;;;11.60;9.60;;;;;;;;;;5009925;28;20431;-66
2022/01/24 17:01:40;;;;;;;12.40;9.13;;;;;;;;;;5003437;28;20785;-65
2022/01/24 17:04:06;;;;;;;8.17;7.30;;;;;;;;;;5010741;28;20447;-65
2022/01/24 17:06:34;;;;;;;16.87;9.47;;;;;;;;;;5009419;28;20432;-65
2022/01/24 17:09:02;;;;;;;16.47;8.20;;;;;;;;;;4999577;28;21048;-67